Time;durP1;ratioP1;P1;durP2;ratioP2;P2;SDS_P1;SDS_P2;PMS_P1;PMS_P2;Temp;Humidity;BMP_temperature;BMP_pressure;BME280_temperature;BME280_humidity;BME280_pressure;Samples;Min_cycle;Max_cycle;Signal;HPM_P1;HPM_P2
2021/04/09 04:29:08;;;;;;;7.60;5.40;;;2.60;44.50;;;;;;6281565;22;20272;-92
2021/04/09 04:31:33;;;;;;;5.67;5.03;;;2.60;44.20;;;;;;6254458;22;20153;-91
2021/04/09 04:33:59;;;;;;;5.00;4.60;;;2.60;44.60;;;;;;6254174;22;20371;-91
2021/04/09 04:36:26;;;;;;;7.20;5.00;;;2.40;44.30;;;;;;6254453;22;20153;-90
2021/04/09 04:38:52;;;;;;;11.15;7.07;;;2.50;44.30;;;;;;6255685;22;20168;-92
2021/04/09 04:41:18;;;;;;;9.20;6.97;;;3.00;44.50;;;;;;6256606;22;20149;-93
2021/04/09 04:43:45;;;;;;;8.38;7.47;;;2.50;44.10;;;;;;6255396;22;20228;-92
2021/04/09 04:46:11;;;;;;;6.53;5.68;;;2.60;44.20;;;;;;6255770;22;20214;-92
2021/04/09 04:48:37;;;;;;;8.18;6.15;;;2.40;44.10;;;;;;6256215;22;20156;-93
2021/04/09 04:59:42;;;;;;;9.13;5.10;;;2.90;44.60;;;;;;6281243;22;20259;-91
2021/04/09 05:02:07;;;;;;;5.57;4.88;;;3.10;44.70;;;;;;6253978;22;20149;-90
2021/04/09 05:04:40;;;;;;;7.17;5.43;;;2.90;44.50;;;;;;6253822;22;20211;-90
2021/04/09 05:07:06;;;;;;;7.78;4.70;;;2.70;44.10;;;;;;6253502;22;20157;-91
2021/04/09 05:09:39;;;;;;;6.20;5.63;;;2.70;44.10;;;;;;6253910;22;20239;-91
2021/04/09 05:12:05;;;;;;;6.00;5.40;;;2.70;43.70;;;;;;6252858;22;20226;-91
2021/04/09 05:14:31;;;;;;;6.63;5.50;;;2.90;44.10;;;;;;6253267;22;20160;-91
2021/04/09 05:16:57;;;;;;;5.57;4.80;;;2.80;43.90;;;;;;6253183;22;20148;-91
2021/04/09 05:19:22;;;;;;;5.73;5.23;;;3.00;44.10;;;;;;6253255;22;20152;-91
2021/04/09 05:25:56;;;;;;;5.78;5.10;;;2.70;43.90;;;;;;6280763;22;20175;-92
2021/04/09 05:31:44;;;;;;;5.93;5.35;;;2.80;44.40;;;;;;6280453;22;20195;-92
2021/04/09 05:34:16;;;;;;;6.40;5.80;;;2.70;44.90;;;;;;6252937;22;20157;-94
2021/04/09 05:36:42;;;;;;;5.22;4.72;;;2.40;45.60;;;;;;6253203;22;20224;-93
2021/04/09 05:39:12;;;;;;;7.03;6.33;;;2.60;45.90;;;;;;6253260;22;20200;-93
2021/04/09 05:41:38;;;;;;;5.20;4.70;;;2.80;45.40;;;;;;6254678;22;20151;-93
2021/04/09 05:44:04;;;;;;;7.30;4.83;;;3.00;44.70;;;;;;6256382;22;20232;-93
2021/04/09 05:46:43;;;;;;;5.57;5.07;;;3.40;44.70;;;;;;6252785;22;20153;-91
2021/04/09 05:49:09;;;;;;;5.57;4.47;;;3.90;44.50;;;;;;6251635;22;20147;-90
2021/04/09 05:51:39;;;;;;;8.43;6.80;;;3.70;43.90;;;;;;6252580;22;20189;-91
2021/04/09 05:54:04;;;;;;;9.00;5.65;;;4.00;43.30;;;;;;6252154;22;20584;-91
2021/04/09 05:56:45;;;;;;;7.33;6.20;;;4.20;43.00;;;;;;6253758;22;20184;-91
2021/04/09 05:59:10;;;;;;;10.25;6.43;;;4.10;42.10;;;;;;6254959;22;20418;-90
2021/04/09 06:01:45;;;;;;;7.50;6.53;;;4.60;41.60;;;;;;6255251;22;20145;-90
2021/04/09 06:04:11;;;;;;;8.40;7.55;;;4.40;41.50;;;;;;6254835;22;20187;-88
2021/04/09 06:10:46;;;;;;;9.45;7.13;;;4.90;40.90;;;;;;6282544;22;20563;-94
2021/04/09 06:15:46;;;;;;;7.47;6.43;;;5.30;40.90;;;;;;6278963;22;20224;-89
2021/04/09 06:18:12;;;;;;;6.85;6.25;;;5.60;39.50;;;;;;6255785;22;20532;-89
2021/04/09 06:20:47;;;;;;;7.40;5.83;;;5.90;39.00;;;;;;6254348;22;20160;-90
2021/04/09 06:23:12;;;;;;;8.70;6.93;;;6.40;37.30;;;;;;6254680;22;20182;-88
2021/04/09 06:25:39;;;;;;;7.67;6.43;;;6.30;35.50;;;;;;6256680;22;20157;-91
2021/04/09 06:28:05;;;;;;;9.95;7.13;;;7.00;35.20;;;;;;6256076;22;20662;-92
2021/04/09 06:30:32;;;;;;;7.93;7.13;;;7.60;35.60;;;;;;6257191;22;20267;-93
2021/04/09 06:32:58;;;;;;;8.98;8.07;;;7.70;34.70;;;;;;6260923;22;20161;-91
2021/04/09 06:35:24;;;;;;;10.60;7.07;;;7.10;34.70;;;;;;6257403;22;20157;-89
2021/04/09 06:37:49;;;;;;;17.80;14.15;;;7.20;34.90;;;;;;6254507;22;20149;-90
2021/04/09 06:40:25;;;;;;;13.23;9.67;;;7.20;34.10;;;;;;6255120;22;20489;-90
2021/04/09 06:42:56;;;;;;;8.27;6.18;;;7.30;34.10;;;;;;6254667;22;20159;-91
2021/04/09 06:45:59;;;;;;;9.43;7.10;;;7.50;34.00;;;;;;6253842;22;20397;-90
2021/04/09 06:48:25;;;;;;;7.82;7.15;;;7.90;33.10;;;;;;6255241;22;20157;-91
2021/04/09 06:51:00;;;;;;;10.13;6.53;;;8.10;32.70;;;;;;6255199;22;20180;-91
2021/04/09 06:53:27;;;;;;;11.23;7.85;;;8.60;32.10;;;;;;6254994;22;20582;-91
2021/04/09 06:55:53;;;;;;;12.18;8.18;;;8.70;31.70;;;;;;6254882;22;20650;-91
2021/04/09 06:59:01;;;;;;;13.82;9.25;;;8.80;30.80;;;;;;6254503;22;20141;-91
2021/04/09 07:01:30;;;;;;;9.95;8.73;;;9.10;30.90;;;;;;6254239;22;20520;-90
2021/04/09 07:04:02;;;;;;;9.68;6.90;;;8.90;30.60;;;;;;6254543;22;20574;-90
2021/04/09 07:06:31;;;;;;;10.07;7.30;;;8.80;30.60;;;;;;6255424;22;20283;-91
2021/04/09 07:09:05;;;;;;;8.23;7.43;;;9.00;30.60;;;;;;6259378;22;20153;-93
2021/04/09 07:11:30;;;;;;;9.65;7.70;;;9.20;30.90;;;;;;6255231;22;20173;-92
2021/04/09 07:13:59;;;;;;;12.77;7.53;;;9.50;30.20;;;;;;6256202;22;20232;-93
2021/04/09 07:16:24;;;;;;;9.00;8.10;;;10.10;29.40;;;;;;6255299;22;20157;-94
2021/04/09 07:18:53;;;;;;;8.97;7.30;;;10.00;28.70;;;;;;6256586;22;20569;-92
2021/04/09 07:21:33;;;;;;;9.05;8.20;;;10.60;28.40;;;;;;6259125;22;20141;-92
2021/04/09 07:51:00;;;;;;;9.40;8.50;;;12.50;26.00;;;;;;6279898;22;20415;-91
2021/04/09 07:53:40;;;;;;;10.23;8.27;;;12.40;26.10;;;;;;6255212;22;20227;-90
2021/04/09 07:56:14;;;;;;;9.23;7.70;;;12.50;26.20;;;;;;6253410;22;20485;-87
2021/04/09 07:58:41;;;;;;;12.43;8.30;;;12.80;26.00;;;;;;6252926;22;20403;-88
2021/04/09 08:01:26;;;;;;;8.10;7.30;;;12.70;25.40;;;;;;6252407;22;20375;-88
2021/04/09 08:03:54;;;;;;;13.07;9.45;;;12.60;25.30;;;;;;6251861;22;20393;-89
2021/04/09 08:06:24;;;;;;;8.93;7.80;;;12.70;25.40;;;;;;6252349;22;20381;-90
2021/04/09 08:08:50;;;;;;;12.20;8.60;;;13.00;25.30;;;;;;6252968;22;20149;-87
2021/04/09 08:11:19;;;;;;;13.70;7.60;;;12.90;25.00;;;;;;6252054;22;20523;-87
2021/04/09 08:14:07;;;;;;;11.23;8.03;;;12.90;25.40;;;;;;6253238;22;20141;-90
2021/04/09 08:16:36;;;;;;;13.23;8.87;;;12.80;24.90;;;;;;6252102;22;20733;-89
2021/04/09 08:19:23;;;;;;;8.00;7.30;;;12.60;25.20;;;;;;6251732;22;20380;-90
2021/04/09 08:21:59;;;;;;;9.83;7.10;;;12.30;25.50;;;;;;6253629;22;20437;-89
2021/04/09 08:24:32;;;;;;;8.13;7.33;;;12.40;25.90;;;;;;6254896;22;20371;-89
2021/04/09 08:27:02;;;;;;;10.00;7.70;;;12.50;25.80;;;;;;6255762;22;20434;-89
2021/04/09 08:29:30;;;;;;;8.87;7.30;;;13.10;25.60;;;;;;6255935;22;20443;-89
2021/04/09 08:32:05;;;;;;;9.47;7.83;;;12.60;25.10;;;;;;6253745;22;20384;-89
2021/04/09 08:34:31;;;;;;;8.57;7.67;;;12.00;25.20;;;;;;6253432;22;20383;-89
2021/04/09 08:36:59;;;;;;;9.47;7.03;;;11.90;26.40;;;;;;6252430;22;20379;-90
2021/04/09 08:39:29;;;;;;;7.70;7.10;;;12.10;26.70;;;;;;6253447;22;20390;-89
2021/04/09 08:42:05;;;;;;;8.60;6.95;;;12.00;26.40;;;;;;6253029;22;20399;-89
2021/04/09 08:44:31;;;;;;;7.97;7.20;;;12.60;26.70;;;;;;6252648;22;20626;-89
2021/04/09 08:47:08;;;;;;;8.47;7.60;;;12.50;26.30;;;;;;6253902;22;20386;-90
2021/04/09 08:49:40;;;;;;;9.00;7.97;;;12.70;26.10;;;;;;6252347;22;20878;-90
2021/04/09 08:52:07;;;;;;;8.90;6.90;;;13.20;26.20;;;;;;6252407;22;20372;-90
2021/04/09 08:54:52;;;;;;;9.17;7.50;;;13.20;25.50;;;;;;6252800;22;20372;-90
2021/04/09 08:57:44;;;;;;;8.87;7.97;;;13.40;24.90;;;;;;6252657;22;20826;-89
2021/04/09 09:00:14;;;;;;;8.50;6.87;;;13.40;24.80;;;;;;6278046;22;20463;-88
2021/04/09 09:02:51;;;;;;;9.47;7.70;;;13.60;24.60;;;;;;6250839;22;20386;-91
2021/04/09 09:05:34;;;;;;;11.40;7.83;;;13.90;24.80;;;;;;6251500;22;20379;-88
2021/04/09 09:08:01;;;;;;;10.60;8.40;;;14.00;24.10;;;;;;6251261;22;20478;-92
2021/04/09 09:10:36;;;;;;;9.45;7.88;;;14.00;24.10;;;;;;6250843;22;20402;-89
2021/04/09 09:13:05;;;;;;;9.17;8.13;;;14.10;24.40;;;;;;6252620;22;20228;-89
2021/04/09 09:16:00;;;;;;;11.67;8.60;;;13.70;24.50;;;;;;6251844;22;20707;-90
2021/04/09 09:18:27;;;;;;;8.90;8.00;;;14.20;24.90;;;;;;6251336;22;20458;-89
2021/04/09 09:21:16;;;;;;;8.10;7.20;;;14.10;24.70;;;;;;6252080;22;20371;-88
2021/04/09 09:24:05;;;;;;;12.63;7.90;;;14.20;24.70;;;;;;6253272;22;20380;-89
2021/04/09 09:26:48;;;;;;;8.10;6.70;;;14.50;24.60;;;;;;6252917;22;20433;-90
2021/04/09 09:29:29;;;;;;;8.50;7.37;;;15.00;24.30;;;;;;6252318;22;20713;-91
2021/04/09 09:32:06;;;;;;;10.80;7.87;;;14.90;24.10;;;;;;6253167;22;20372;-89
2021/04/09 09:34:40;;;;;;;9.90;7.37;;;15.20;22.80;;;;;;6253875;22;20469;-91
2021/04/09 09:37:46;;;;;;;8.00;7.20;;;15.10;23.10;;;;;;6256536;22;20389;-93
2021/04/09 09:40:11;;;;;;;9.20;7.80;;;16.00;23.80;;;;;;6255320;22;20383;-90
2021/04/09 09:42:47;;;;;;;8.43;7.33;;;15.60;22.30;;;;;;6254853;22;20371;-90
2021/04/09 09:45:35;;;;;;;6.90;6.30;;;15.70;22.40;;;;;;6280883;22;20199;-89
2021/04/09 09:48:19;;;;;;;8.27;7.37;;;15.60;22.00;;;;;;6253561;22;20390;-91
2021/04/09 09:50:45;;;;;;;7.83;7.03;;;15.80;22.30;;;;;;6254087;22;20443;-91
2021/04/09 09:53:11;;;;;;;7.03;6.23;;;15.90;22.00;;;;;;6253922;22;20419;-91
2021/04/09 09:55:58;;;;;;;7.30;6.67;;;16.00;22.10;;;;;;6252920;22;20149;-92
2021/04/09 09:58:26;;;;;;;7.33;6.30;;;16.00;22.10;;;;;;6253739;22;20399;-91
2021/04/09 10:01:12;;;;;;;6.77;6.17;;;16.20;21.90;;;;;;6253865;22;20392;-90
2021/04/09 10:03:38;;;;;;;7.17;6.07;;;16.30;21.00;;;;;;6252261;22;20379;-90
2021/04/09 10:06:12;;;;;;;8.53;6.77;;;16.50;21.40;;;;;;6256765;22;20403;-92
2021/04/09 10:08:39;;;;;;;6.60;6.00;;;16.70;21.60;;;;;;6253854;22;20435;-89
2021/04/09 10:11:16;;;;;;;7.43;6.73;;;16.90;21.40;;;;;;6253614;22;20434;-91
2021/04/09 10:13:44;;;;;;;7.67;6.03;;;16.90;20.80;;;;;;6253936;22;20378;-89
2021/04/09 10:16:42;;;;;;;7.80;7.10;;;17.50;21.10;;;;;;6253333;22;20683;-88
2021/04/09 10:19:08;;;;;;;7.33;6.63;;;17.50;20.30;;;;;;6255469;22;20372;-92
2021/04/09 10:21:40;;;;;;;8.63;7.30;;;17.50;19.90;;;;;;6253351;22;20376;-91
2021/04/09 10:24:12;;;;;;;8.70;6.60;;;17.50;19.80;;;;;;6254501;22;20375;-93
2021/04/09 10:26:50;;;;;;;7.20;6.60;;;17.20;19.80;;;;;;6255341;22;20380;-92
2021/04/09 10:29:42;;;;;;;7.13;6.30;;;17.50;20.30;;;;;;6281032;22;20352;-93
2021/04/09 10:32:27;;;;;;;9.07;7.33;;;17.80;20.60;;;;;;6252513;22;20471;-93
2021/04/09 10:34:53;;;;;;;7.53;6.83;;;17.60;20.40;;;;;;6256840;22;20845;-94
2021/04/09 10:37:25;;;;;;;6.77;6.00;;;17.60;19.90;;;;;;6255973;22;20371;-94
2021/04/09 10:39:52;;;;;;;8.67;5.70;;;17.70;20.30;;;;;;6257167;22;20172;-94
2021/04/09 10:42:33;;;;;;;6.93;6.23;;;18.00;20.50;;;;;;6256925;22;20379;-92
2021/04/09 10:44:59;;;;;;;7.13;6.40;;;18.40;20.20;;;;;;6256693;22;20397;-90
2021/04/09 10:50:51;;;;;;;6.60;6.00;;;18.40;19.30;;;;;;6282983;22;20208;-92
2021/04/09 10:53:16;;;;;;;8.93;6.00;;;18.70;20.10;;;;;;6261342;22;20375;-91
2021/04/09 10:55:49;;;;;;;5.90;5.30;;;18.90;19.00;;;;;;6258505;22;20376;-91
2021/04/09 10:58:16;;;;;;;5.47;4.97;;;18.90;17.30;;;;;;6262595;22;20149;-90
2021/04/09 11:00:45;;;;;;;5.30;4.70;;;19.00;17.40;;;;;;6256966;22;20394;-91
2021/04/09 11:03:15;;;;;;;5.77;4.87;;;19.10;17.10;;;;;;6258960;22;20217;-92
2021/04/09 11:06:04;;;;;;;5.70;4.78;;;19.20;16.60;;;;;;6256151;22;20382;-88
2021/04/09 11:08:38;;;;;;;6.53;5.07;;;19.50;16.90;;;;;;6260153;22;20167;-93
2021/04/09 11:11:52;;;;;;;5.40;3.97;;;19.70;16.10;;;;;;6224576;23;20511;-91
2021/04/09 11:14:18;;;;;;;5.47;4.97;;;19.50;16.20;;;;;;6195204;23;20393;-89
2021/04/09 11:16:58;;;;;;;5.47;4.50;;;19.60;16.10;;;;;;6194493;23;20366;-90
2021/04/09 11:19:34;;;;;;;5.27;3.77;;;19.80;16.70;;;;;;6194433;23;20387;-90
2021/04/09 11:22:36;;;;;;;4.83;3.73;;;19.50;15.00;;;;;;6195657;23;20355;-89
2021/04/09 11:25:07;;;;;;;6.17;3.37;;;19.80;16.20;;;;;;6195785;23;20472;-92
2021/04/09 11:27:38;;;;;;;4.70;3.57;;;19.70;16.00;;;;;;6195454;23;20834;-89
2021/04/09 11:33:39;;;;;;;5.07;2.87;;;19.60;13.60;;;;;;6216208;23;20870;-90
2021/04/09 11:36:18;;;;;;;2.67;2.47;;;19.30;14.10;;;;;;6196058;23;20378;-90
2021/04/09 11:42:08;;;;;;;4.10;2.17;;;19.20;13.30;;;;;;6253346;22;20889;-91
2021/04/09 11:44:55;;;;;;;2.90;2.37;;;18.70;12.90;;;;;;6257325;22;20827;-92
2021/04/09 11:47:27;;;;;;;2.97;2.07;;;18.60;13.20;;;;;;6260610;22;20395;-92
2021/04/09 11:50:25;;;;;;;2.80;2.47;;;18.10;13.20;;;;;;6257056;22;20542;-92
2021/04/09 11:53:04;;;;;;;2.57;2.07;;;18.10;13.20;;;;;;6281777;22;20874;-90
2021/04/09 11:55:39;;;;;;;3.67;2.17;;;17.80;13.30;;;;;;6255019;22;20470;-90
2021/04/09 11:58:18;;;;;;;3.33;1.80;;;17.40;14.10;;;;;;6254813;22;20377;-90
2021/04/09 12:00:57;;;;;;;3.40;2.40;;;17.50;14.60;;;;;;6256540;22;20384;-90
2021/04/09 12:03:46;;;;;;;3.97;2.57;;;17.80;14.60;;;;;;6254788;22;20380;-90
2021/04/09 12:06:19;;;;;;;5.70;2.47;;;18.30;14.20;;;;;;6280940;22;20387;-90
2021/04/09 12:08:53;;;;;;;2.43;2.23;;;18.70;14.30;;;;;;6254233;22;20479;-90
2021/04/09 12:11:22;;;;;;;2.93;2.10;;;18.70;12.60;;;;;;6255156;22;20746;-90
2021/04/09 12:17:12;;;;;;;3.50;2.07;;;18.70;12.50;;;;;;6282766;22;20814;-90
2021/04/09 12:19:51;;;;;;;2.27;1.90;;;18.90;12.40;;;;;;6254472;22;20376;-89
2021/04/09 12:22:18;;;;;;;4.80;2.60;;;18.80;11.70;;;;;;6256730;22;20474;-93
2021/04/09 12:25:04;;;;;;;2.97;1.50;;;19.50;11.90;;;;;;6257723;22;20375;-89
2021/04/09 12:27:29;;;;;;;1.67;1.57;;;19.20;10.60;;;;;;6255120;22;20510;-90
2021/04/09 12:29:55;;;;;;;2.80;1.60;;;19.30;11.20;;;;;;6255047;22;20399;-90
2021/04/09 12:32:21;;;;;;;2.93;2.30;;;19.40;11.60;;;;;;6255038;22;20594;-89
2021/04/09 12:38:37;;;;;;;4.57;2.73;;;19.70;10.90;;;;;;6282906;22;20133;-89
2021/04/09 12:41:03;;;;;;;2.07;1.60;;;19.60;9.80;;;;;;6256183;22;20350;-90
2021/04/09 12:43:48;;;;;;;5.87;1.93;;;19.70;10.10;;;;;;6257488;22;20429;-90
2021/04/09 12:46:14;;;;;;;4.53;1.70;;;19.60;10.20;;;;;;6260076;22;20173;-90
2021/04/09 12:48:59;;;;;;;2.13;1.73;;;19.70;10.20;;;;;;6256352;22;20354;-90
2021/04/09 12:51:26;;;;;;;2.27;1.87;;;19.80;10.40;;;;;;6256730;22;20441;-90
2021/04/09 12:54:14;;;;;;;3.20;1.80;;;19.10;10.00;;;;;;6254218;22;20361;-90
2021/04/09 12:56:40;;;;;;;3.50;1.77;;;18.80;10.30;;;;;;6254773;22;20376;-92
2021/04/09 12:59:15;;;;;;;2.23;1.90;;;18.60;10.50;;;;;;6257125;22;20437;-89
2021/04/09 13:01:42;;;;;;;4.07;1.43;;;18.00;10.70;;;;;;6256785;22;20375;-92
2021/04/09 13:04:09;;;;;;;6.70;2.20;;;17.90;10.80;;;;;;6256579;22;20368;-92
2021/04/09 13:06:35;;;;;;;2.70;1.53;;;17.70;11.10;;;;;;6256126;22;20380;-91
2021/04/09 13:09:41;;;;;;;2.00;1.53;;;17.70;11.70;;;;;;6260157;22;20406;-92
2021/04/09 13:15:29;;;;;;;2.30;1.70;;;17.80;11.30;;;;;;6286321;22;20398;-92
2021/04/09 13:18:18;;;;;;;3.55;1.60;;;18.50;11.70;;;;;;6232477;22;20378;-93
2021/04/09 13:20:43;;;;;;;2.40;1.90;;;18.00;10.50;;;;;;6256399;22;20153;-91
2021/04/09 13:23:16;;;;;;;4.83;1.70;;;17.90;11.00;;;;;;6255856;22;20449;-92
2021/04/09 13:25:43;;;;;;;3.43;1.80;;;17.90;11.10;;;;;;6255792;22;20152;-92
2021/04/09 13:28:18;;;;;;;1.87;1.50;;;18.10;10.90;;;;;;6254912;22;20834;-91
2021/04/09 13:30:45;;;;;;;2.50;1.60;;;18.40;11.20;;;;;;6255118;22;20398;-92
2021/04/09 13:33:37;;;;;;;2.40;2.20;;;18.40;11.00;;;;;;6257321;22;20152;-91
2021/04/09 13:36:06;;;;;;;4.10;1.87;;;18.30;11.00;;;;;;6257456;22;20375;-92
2021/04/09 13:38:32;;;;;;;2.70;1.73;;;18.50;11.00;;;;;;6253750;22;20371;-89
2021/04/09 13:41:05;;;;;;;3.33;1.50;;;18.30;11.10;;;;;;6252712;22;20745;-89
2021/04/09 13:43:31;;;;;;;2.83;2.10;;;18.70;11.30;;;;;;6256729;22;20407;-92
2021/04/09 13:46:31;;;;;;;2.80;1.90;;;18.60;10.50;;;;;;6256482;22;20438;-88
2021/04/09 13:48:57;;;;;;;2.17;1.40;;;18.70;10.30;;;;;;6257691;22;20438;-92
2021/04/09 13:51:58;;;;;;;3.37;2.43;;;18.60;10.40;;;;;;6256586;22;20447;-93
2021/04/09 13:54:24;;;;;;;3.93;2.13;;;18.90;10.40;;;;;;6259592;22;20223;-93
2021/04/09 13:56:55;;;;;;;2.40;1.60;;;18.80;10.30;;;;;;6257956;22;20372;-90
2021/04/09 13:59:21;;;;;;;2.33;1.80;;;19.20;11.30;;;;;;6258293;22;20156;-90
2021/04/09 14:02:06;;;;;;;2.10;1.90;;;18.90;10.70;;;;;;6257698;22;20382;-91
2021/04/09 14:04:32;;;;;;;2.60;1.67;;;19.20;10.70;;;;;;6259829;22;20183;-91
2021/04/09 14:06:58;;;;;;;4.70;1.97;;;19.10;10.60;;;;;;6257441;22;20383;-91
2021/04/09 14:09:24;;;;;;;2.33;1.47;;;18.80;11.00;;;;;;6256154;22;20151;-90
2021/04/09 14:12:29;;;;;;;3.10;1.70;;;18.80;10.90;;;;;;6258479;22;20392;-90
2021/04/09 14:14:55;;;;;;;2.60;2.17;;;18.70;11.20;;;;;;6256682;22;20602;-90
2021/04/09 14:17:22;;;;;;;3.37;1.93;;;18.50;11.10;;;;;;6257348;22;20367;-90
2021/04/09 14:19:47;;;;;;;3.90;1.90;;;18.70;11.60;;;;;;6259113;22;20556;-91
2021/04/09 14:22:46;;;;;;;1.90;1.63;;;18.60;11.60;;;;;;6258955;22;20358;-92
2021/04/09 14:25:13;;;;;;;2.37;1.60;;;18.40;12.20;;;;;;6259291;22;20145;-93
2021/04/09 14:27:45;;;;;;;2.17;1.43;;;18.80;12.50;;;;;;6258747;22;20387;-92
2021/04/09 14:30:20;;;;;;;3.57;1.77;;;18.90;12.60;;;;;;6259048;22;20959;-92
2021/04/09 14:33:36;;;;;;;3.63;2.00;;;18.70;12.00;;;;;;6257884;22;20350;-92
2021/04/09 14:36:01;;;;;;;3.35;2.03;;;18.50;11.70;;;;;;6256283;22;20368;-91
2021/04/09 14:38:42;;;;;;;4.90;1.80;;;18.90;11.80;;;;;;6257008;22;20145;-91
2021/04/09 14:41:08;;;;;;;4.07;2.07;;;18.60;12.30;;;;;;6261374;22;20263;-90
2021/04/09 14:43:52;;;;;;;3.30;1.73;;;18.40;12.30;;;;;;6261997;22;20390;-92
2021/04/09 14:46:18;;;;;;;1.63;1.50;;;18.70;11.90;;;;;;6256308;22;20379;-91
2021/04/09 14:49:17;;;;;;;3.33;1.43;;;18.50;12.00;;;;;;6258370;22;20411;-89
2021/04/09 14:51:43;;;;;;;3.20;2.13;;;18.60;11.40;;;;;;6229651;23;20208;-92
2021/04/09 14:57:30;;;;;;;3.23;2.53;;;18.70;11.00;;;;;;6262506;23;20360;-94
2021/04/09 15:06:40;;;;;;;1.77;1.67;;;18.80;12.00;;;;;;6261023;23;20372;-94
2021/04/09 15:09:08;;;;;;;3.27;1.90;;;18.50;11.80;;;;;;6232310;23;20388;-92
2021/04/09 15:11:35;;;;;;;3.30;2.30;;;18.40;11.90;;;;;;6239214;23;20189;-93
2021/04/09 15:14:02;;;;;;;2.67;2.17;;;18.50;11.80;;;;;;6241518;23;20373;-92
2021/04/09 15:19:51;;;;;;;3.80;1.92;;;18.60;12.20;;;;;;6264715;23;20424;-93
2021/04/09 15:25:42;;;;;;;2.57;2.00;;;19.30;12.90;;;;;;6259759;23;20319;-93
2021/04/09 15:29:10;;;;;;;2.40;1.60;;;18.90;12.80;;;;;;6239736;23;20354;-93
2021/04/09 15:31:36;;;;;;;3.00;1.67;;;18.80;12.60;;;;;;6229527;23;20423;-95
2021/04/09 15:34:02;;;;;;;2.40;1.83;;;19.00;13.10;;;;;;6228430;23;20142;-93
2021/04/09 15:39:50;;;;;;;3.80;1.73;;;19.20;12.90;;;;;;6264853;23;20433;-94
2021/04/09 15:45:39;;;;;;;2.40;1.57;;;19.70;13.10;;;;;;6269790;22;20361;-96
2021/04/09 15:48:49;;;;;;;2.27;1.80;;;20.10;13.60;;;;;;6239495;23;20387;-93
2021/04/09 15:58:25;;;;;;;1.73;1.63;;;19.80;13.00;;;;;;6294894;22;20337;-95
2021/04/09 16:00:51;;;;;;;3.80;1.90;;;20.10;12.80;;;;;;6268956;22;20354;-92
2021/04/09 16:03:17;;;;;;;4.70;1.83;;;19.80;12.60;;;;;;6265703;22;20410;-92
2021/04/09 16:06:01;;;;;;;4.17;2.60;;;19.70;12.70;;;;;;6264802;22;20350;-91
2021/04/09 16:08:27;;;;;;;2.67;1.77;;;19.80;13.40;;;;;;6264669;22;20380;-93
2021/04/09 16:11:05;;;;;;;2.77;1.97;;;19.70;13.30;;;;;;6263478;22;20450;-92
2021/04/09 16:13:31;;;;;;;3.90;1.67;;;19.60;13.10;;;;;;6264408;22;20235;-92
2021/04/09 16:16:10;;;;;;;3.33;2.17;;;19.20;13.40;;;;;;6264766;22;20375;-93
2021/04/09 16:18:36;;;;;;;4.60;2.07;;;19.60;13.90;;;;;;6263250;22;20410;-93
2021/04/09 16:21:05;;;;;;;3.67;1.97;;;19.70;13.40;;;;;;6261711;22;20387;-91
2021/04/09 16:23:31;;;;;;;5.07;2.37;;;19.70;13.50;;;;;;6264984;22;20380;-92
2021/04/09 16:26:35;;;;;;;3.90;2.40;;;19.90;13.70;;;;;;6264433;22;20395;-92
2021/04/09 16:29:01;;;;;;;3.10;1.80;;;20.20;13.70;;;;;;6265487;22;20159;-91
2021/04/09 16:31:35;;;;;;;3.63;1.87;;;19.80;13.50;;;;;;6260999;22;20415;-92
2021/04/09 16:34:01;;;;;;;2.67;1.80;;;19.80;13.80;;;;;;6258947;22;20387;-92
2021/04/09 16:37:02;;;;;;;3.33;2.43;;;19.80;13.80;;;;;;6260686;22;20380;-93
2021/04/09 16:39:27;;;;;;;2.93;1.70;;;19.80;14.00;;;;;;6261476;22;20436;-93
2021/04/09 16:41:55;;;;;;;4.60;1.97;;;19.80;14.00;;;;;;6259155;22;20736;-89
2021/04/09 16:44:21;;;;;;;2.90;2.53;;;19.80;14.30;;;;;;6256651;22;20146;-90
2021/04/09 16:46:49;;;;;;;5.70;3.70;;;20.00;14.40;;;;;;6257625;22;20382;-90
2021/04/09 16:49:15;;;;;;;12.47;10.53;;;20.10;14.30;;;;;;6260966;22;20149;-90
2021/04/09 16:51:48;;;;;;;7.17;6.40;;;20.20;14.40;;;;;;6260806;22;20571;-90
2021/04/09 16:54:21;;;;;;;3.30;2.40;;;20.30;14.30;;;;;;6263915;22;20185;-89
2021/04/09 16:56:47;;;;;;;7.00;5.90;;;20.50;13.60;;;;;;6261584;22;20383;-92
2021/04/09 16:59:50;;;;;;;4.07;2.50;;;20.50;13.80;;;;;;6263551;22;20383;-90
2021/04/09 17:02:16;;;;;;;3.90;2.57;;;20.50;13.70;;;;;;6261120;22;20247;-89
2021/04/09 17:05:05;;;;;;;6.13;4.10;;;20.70;13.80;;;;;;6262594;22;20923;-90
2021/04/09 17:07:31;;;;;;;3.37;2.30;;;20.20;13.40;;;;;;6260407;22;20404;-90
2021/04/09 17:10:22;;;;;;;3.23;2.50;;;20.40;13.90;;;;;;6259670;22;20428;-91
2021/04/09 17:12:48;;;;;;;4.17;3.30;;;20.40;14.00;;;;;;6262266;22;20196;-90
2021/04/09 17:15:25;;;;;;;3.00;2.40;;;20.30;14.50;;;;;;6260648;22;20367;-90
2021/04/09 17:17:51;;;;;;;2.43;2.23;;;20.20;14.40;;;;;;6259750;22;20441;-90
2021/04/09 17:20:30;;;;;;;3.43;2.50;;;20.60;14.40;;;;;;6261039;22;20455;-91
2021/04/09 17:22:56;;;;;;;3.37;2.57;;;20.60;14.30;;;;;;6258690;22;20198;-91
2021/04/09 17:25:37;;;;;;;6.30;2.73;;;20.60;14.00;;;;;;6260599;22;20368;-91
2021/04/09 17:28:04;;;;;;;2.37;2.17;;;20.70;14.10;;;;;;6262773;22;20148;-93
2021/04/09 17:34:21;;;;;;;6.30;2.60;;;20.90;14.10;;;;;;6287161;22;20428;-93
2021/04/09 17:36:47;;;;;;;2.37;2.07;;;20.90;14.10;;;;;;6257029;22;20801;-93
2021/04/09 17:39:14;;;;;;;3.80;2.50;;;20.60;14.40;;;;;;6257847;22;20376;-94
2021/04/09 17:45:06;;;;;;;5.20;2.63;;;20.20;14.50;;;;;;6288521;22;20339;-94
2021/04/09 17:47:32;;;;;;;4.93;2.50;;;20.40;14.90;;;;;;6256161;22;20850;-94
2021/04/09 17:49:59;;;;;;;9.43;3.57;;;20.40;15.10;;;;;;6258748;22;20548;-93
2021/04/09 17:52:25;;;;;;;2.63;2.40;;;20.20;15.00;;;;;;6256532;22;20149;-89
2021/04/09 17:54:51;;;;;;;2.80;2.50;;;20.00;15.10;;;;;;6256239;22;20435;-90
2021/04/09 17:57:42;;;;;;;4.60;4.20;;;20.20;15.40;;;;;;6257367;22;20156;-90
2021/04/09 18:00:10;;;;;;;6.23;4.50;;;20.30;15.80;;;;;;6256450;22;20440;-90
2021/04/09 18:02:43;;;;;;;7.57;5.30;;;20.20;15.90;;;;;;6255451;22;20439;-94
2021/04/09 18:05:09;;;;;;;10.43;8.57;;;20.00;16.00;;;;;;6255374;22;20376;-91
2021/04/09 18:07:49;;;;;;;4.80;4.40;;;20.00;16.00;;;;;;6255458;22;20371;-93
2021/04/09 18:10:15;;;;;;;8.87;5.20;;;19.30;16.10;;;;;;6254292;22;20419;-92
2021/04/09 18:12:41;;;;;;;6.23;4.70;;;19.20;16.20;;;;;;6253962;22;20378;-92
2021/04/09 18:15:09;;;;;;;4.13;3.73;;;19.40;16.40;;;;;;6253192;22;20229;-91
2021/04/09 18:17:41;;;;;;;4.70;4.27;;;19.50;16.70;;;;;;6253244;22;20700;-93
2021/04/09 18:20:08;;;;;;;6.27;4.20;;;19.50;17.20;;;;;;6253371;22;20451;-92
2021/04/09 18:25:58;;;;;;;6.30;4.37;;;19.40;16.90;;;;;;6280445;22;20353;-92
2021/04/09 18:28:24;;;;;;;7.13;4.20;;;19.40;17.50;;;;;;6254125;22;20388;-91
2021/04/09 18:31:08;;;;;;;4.33;3.87;;;19.30;17.50;;;;;;6253849;22;20483;-91
2021/04/09 18:36:23;;;;;;;6.93;5.43;;;19.20;17.70;;;;;;6277207;22;20376;-90
2021/04/09 18:38:55;;;;;;;4.43;3.80;;;19.10;17.50;;;;;;6254887;22;20343;-90
2021/04/09 18:41:21;;;;;;;6.53;3.60;;;19.20;17.50;;;;;;6256312;22;20401;-91
2021/04/09 18:43:48;;;;;;;5.70;3.70;;;19.20;17.80;;;;;;6256106;22;20379;-91
2021/04/09 18:46:13;;;;;;;6.63;3.40;;;18.90;17.50;;;;;;6255618;22;20152;-90
2021/04/09 18:48:58;;;;;;;4.30;3.00;;;18.80;17.40;;;;;;6254232;22;20379;-93
2021/04/09 18:51:23;;;;;;;4.77;3.53;;;18.70;17.90;;;;;;6257785;22;20169;-93
2021/04/09 18:53:49;;;;;;;8.63;5.37;;;18.90;17.90;;;;;;6256578;22;20372;-93
2021/04/09 18:56:15;;;;;;;11.40;8.53;;;18.80;18.00;;;;;;6254116;22;20153;-93
2021/04/09 18:58:54;;;;;;;10.07;7.80;;;18.50;18.10;;;;;;6254297;22;20145;-93
2021/04/09 19:01:20;;;;;;;9.33;5.70;;;18.20;18.00;;;;;;6255091;22;20375;-94
2021/04/09 19:04:05;;;;;;;6.00;4.77;;;18.30;17.90;;;;;;6255848;22;20378;-93
2021/04/09 19:06:31;;;;;;;5.20;3.97;;;18.30;17.90;;;;;;6256363;22;20160;-93
2021/04/09 19:09:11;;;;;;;6.03;4.93;;;18.30;18.30;;;;;;6256279;22;20842;-93
2021/04/09 19:11:38;;;;;;;6.10;4.87;;;18.60;18.90;;;;;;6255937;22;20187;-93
2021/04/09 19:14:10;;;;;;;4.37;3.97;;;18.70;19.40;;;;;;6256482;22;20411;-91
2021/04/09 19:16:35;;;;;;;6.20;3.43;;;18.70;21.10;;;;;;6256877;22;20387;-91
2021/04/09 19:19:02;;;;;;;11.37;10.20;;;18.60;21.20;;;;;;6255742;22;20376;-91
2021/04/09 19:21:27;;;;;;;10.13;7.93;;;18.50;20.70;;;;;;6256875;22;20149;-93
2021/04/09 19:24:44;;;;;;;9.57;6.90;;;18.50;20.60;;;;;;6256404;22;20411;-93
2021/04/09 19:27:11;;;;;;;11.17;7.00;;;18.40;20.60;;;;;;6257040;22;20160;-93
2021/04/09 19:32:53;;;;;;;6.93;5.80;;;18.10;21.10;;;;;;6286045;22;20352;-92
2021/04/09 19:35:34;;;;;;;5.80;5.20;;;18.00;21.60;;;;;;6257564;22;20846;-95
2021/04/09 19:38:01;;;;;;;6.83;5.20;;;18.10;22.80;;;;;;6257223;22;20234;-91
2021/04/09 19:44:23;;;;;;;5.40;3.80;;;17.70;23.10;;;;;;6285983;22;20304;-91
2021/04/09 19:46:49;;;;;;;5.80;4.40;;;17.80;23.10;;;;;;6259329;22;20471;-94
2021/04/09 19:49:19;;;;;;;5.23;3.83;;;17.60;23.10;;;;;;6258014;22;20380;-93